sensor_id;sensor_type;location;lat;lon;timestamp;pressure;altitude;pressure_sealevel;temperature;humidity
23229;BME280;11783;50.350;6.576;2023-03-22T11:48:39;95566.34;;;22.08;42.54
23229;BME280;11783;50.350;6.576;2023-03-22T11:51:12;95579.16;;;21.98;42.41
23229;BME280;11783;50.350;6.576;2023-03-22T11:53:39;95596.78;;;21.84;42.88
23229;BME280;11783;50.350;6.576;2023-03-22T11:56:09;95582.72;;;21.69;43.24
23229;BME280;11783;50.350;6.576;2023-03-22T12:01:02;95584.06;;;22.05;42.85
23229;BME280;11783;50.350;6.576;2023-03-22T12:03:34;95605.81;;;22.09;42.60
23229;BME280;11783;50.350;6.576;2023-03-22T12:06:02;95577.63;;;22.10;42.56
23229;BME280;11783;50.350;6.576;2023-03-22T12:08:41;95580.00;;;22.11;42.70
23229;BME280;11783;50.350;6.576;2023-03-22T12:11:14;95573.81;;;22.11;42.64
23229;BME280;11783;50.350;6.576;2023-03-22T12:13:59;95576.50;;;22.11;42.72
23229;BME280;11783;50.350;6.576;2023-03-22T12:16:46;95569.34;;;22.15;42.64
23229;BME280;11783;50.350;6.576;2023-03-22T12:24:01;95561.47;;;20.62;38.28
23229;BME280;11783;50.350;6.576;2023-03-22T12:26:28;95553.41;;;17.91;43.81
23229;BME280;11783;50.350;6.576;2023-03-22T12:29:00;95558.09;;;15.61;51.08
23229;BME280;11783;50.350;6.576;2023-03-22T12:31:36;95549.84;;;14.48;54.91
23229;BME280;11783;50.350;6.576;2023-03-22T12:34:05;95542.75;;;13.75;58.58
23229;BME280;11783;50.350;6.576;2023-03-22T12:36:40;95544.09;;;12.79;63.17
23229;BME280;11783;50.350;6.576;2023-03-22T12:39:21;95562.56;;;12.60;65.11
23229;BME280;11783;50.350;6.576;2023-03-22T12:41:49;95538.44;;;12.16;65.27
23229;BME280;11783;50.350;6.576;2023-03-22T12:44:28;95543.00;;;11.95;66.79
23229;BME280;11783;50.350;6.576;2023-03-22T12:47:03;95527.78;;;11.50;67.46
23229;BME280;11783;50.350;6.576;2023-03-22T12:49:40;95526.72;;;11.26;69.21
23229;BME280;11783;50.350;6.576;2023-03-22T12:52:24;95536.78;;;11.13;71.80
23229;BME280;11783;50.350;6.576;2023-03-22T12:54:51;95536.28;;;11.16;71.15
23229;BME280;11783;50.350;6.576;2023-03-22T12:57:18;95527.44;;;10.96;71.48
23229;BME280;11783;50.350;6.576;2023-03-22T12:59:47;95525.31;;;10.87;73.53
23229;BME280;11783;50.350;6.576;2023-03-22T13:02:27;95542.84;;;10.93;74.47
23229;BME280;11783;50.350;6.576;2023-03-22T13:04:56;95543.38;;;10.96;73.72
23229;BME280;11783;50.350;6.576;2023-03-22T13:21:16;95556.34;;;10.72;75.06
23229;BME280;11783;50.350;6.576;2023-03-22T13:26:26;95539.53;;;10.56;76.57
23229;BME280;11783;50.350;6.576;2023-03-22T13:28:57;95534.00;;;10.73;75.44
23229;BME280;11783;50.350;6.576;2023-03-22T13:34:21;95534.09;;;10.93;75.66
23229;BME280;11783;50.350;6.576;2023-03-22T13:36:56;95517.91;;;11.05;75.17
23229;BME280;11783;50.350;6.576;2023-03-22T13:39:22;95520.03;;;11.13;75.04
23229;BME280;11783;50.350;6.576;2023-03-22T13:42:01;95503.03;;;11.29;75.83
23229;BME280;11783;50.350;6.576;2023-03-22T13:44:30;95489.47;;;11.31;75.94
23229;BME280;11783;50.350;6.576;2023-03-22T13:47:00;95486.56;;;11.47;75.83
23229;BME280;11783;50.350;6.576;2023-03-22T13:51:59;95498.81;;;11.59;73.82
23229;BME280;11783;50.350;6.576;2023-03-22T13:54:34;95487.34;;;11.58;73.01
23229;BME280;11783;50.350;6.576;2023-03-22T13:57:01;95486.81;;;11.51;74.03
23229;BME280;11783;50.350;6.576;2023-03-22T14:04:43;95479.66;;;11.41;74.21
23229;BME280;11783;50.350;6.576;2023-03-22T14:07:25;95478.59;;;11.37;74.20
23229;BME280;11783;50.350;6.576;2023-03-22T14:09:58;95483.63;;;11.23;73.32
23229;BME280;11783;50.350;6.576;2023-03-22T14:15:21;95489.22;;;11.17;75.19
23229;BME280;11783;50.350;6.576;2023-03-22T14:18:13;95476.16;;;11.10;74.33
23229;BME280;11783;50.350;6.576;2023-03-22T14:20:40;95470.31;;;11.03;74.90
23229;BME280;11783;50.350;6.576;2023-03-22T14:23:12;95474.56;;;11.14;75.21
23229;BME280;11783;50.350;6.576;2023-03-22T14:25:38;95473.22;;;11.07;75.31
23229;BME280;11783;50.350;6.576;2023-03-22T14:28:05;95481.19;;;11.12;76.45
23229;BME280;11783;50.350;6.576;2023-03-22T14:33:06;95468.19;;;11.00;74.46
23229;BME280;11783;50.350;6.576;2023-03-22T14:35:41;95467.09;;;10.96;76.75
23229;BME280;11783;50.350;6.576;2023-03-22T14:38:13;95465.78;;;10.99;77.17
23229;BME280;11783;50.350;6.576;2023-03-22T14:40:39;95477.19;;;10.89;75.66
23229;BME280;11783;50.350;6.576;2023-03-22T14:45:36;95476.69;;;10.97;76.59
23229;BME280;11783;50.350;6.576;2023-03-22T14:48:07;95484.66;;;11.07;77.59
23229;BME280;11783;50.350;6.576;2023-03-22T14:50:43;95483.88;;;11.02;77.89
23229;BME280;11783;50.350;6.576;2023-03-22T14:53:09;95479.84;;;10.84;77.18
23229;BME280;11783;50.350;6.576;2023-03-22T14:55:36;95479.63;;;11.01;78.56
23229;BME280;11783;50.350;6.576;2023-03-22T14:58:03;95489.41;;;10.95;78.37
23229;BME280;11783;50.350;6.576;2023-03-22T15:00:30;95489.44;;;11.00;78.62
23229;BME280;11783;50.350;6.576;2023-03-22T15:03:01;95472.97;;;11.08;79.30
23229;BME280;11783;50.350;6.576;2023-03-22T15:05:34;95472.97;;;11.08;77.99
23229;BME280;11783;50.350;6.576;2023-03-22T15:08:07;95478.31;;;11.23;78.93
23229;BME280;11783;50.350;6.576;2023-03-22T15:10:35;95491.06;;;11.16;78.18
23229;BME280;11783;50.350;6.576;2023-03-22T15:13:02;95478.28;;;11.13;79.32
23229;BME280;11783;50.350;6.576;2023-03-22T15:15:31;95481.75;;;11.14;78.10
23229;BME280;11783;50.350;6.576;2023-03-22T15:17:58;95471.09;;;11.14;78.52
23229;BME280;11783;50.350;6.576;2023-03-22T15:20:36;95468.19;;;11.31;78.88
23229;BME280;11783;50.350;6.576;2023-03-22T15:25:38;95455.72;;;11.36;77.85
23229;BME280;11783;50.350;6.576;2023-03-22T15:28:08;95461.00;;;11.46;78.25
23229;BME280;11783;50.350;6.576;2023-03-22T15:30:43;95462.34;;;11.34;77.57
23229;BME280;11783;50.350;6.576;2023-03-22T15:33:19;95460.47;;;11.29;79.54
23229;BME280;11783;50.350;6.576;2023-03-22T15:35:46;95469.25;;;11.25;78.93
23229;BME280;11783;50.350;6.576;2023-03-22T15:38:12;95458.34;;;11.26;78.73
23229;BME280;11783;50.350;6.576;2023-03-22T15:40:40;95455.69;;;11.16;79.41
23229;BME280;11783;50.350;6.576;2023-03-22T15:43:37;95467.66;;;11.03;79.50
23229;BME280;11783;50.350;6.576;2023-03-22T15:46:18;95453.25;;;10.79;79.56
23229;BME280;11783;50.350;6.576;2023-03-22T15:51:17;95453.53;;;10.87;80.12
23229;BME280;11783;50.350;6.576;2023-03-22T15:53:44;95458.03;;;10.87;80.50
23229;BME280;11783;50.350;6.576;2023-03-22T15:56:30;95452.75;;;10.97;81.04
23229;BME280;11783;50.350;6.576;2023-03-22T15:58:58;95492.09;;;11.00;79.67
23229;BME280;11783;50.350;6.576;2023-03-22T16:01:24;95460.69;;;10.87;80.49
23229;BME280;11783;50.350;6.576;2023-03-22T16:03:51;95451.94;;;10.86;80.24
23229;BME280;11783;50.350;6.576;2023-03-22T16:06:19;95463.63;;;10.80;80.41
23229;BME280;11783;50.350;6.576;2023-03-22T16:08:45;95448.22;;;10.87;79.94
23229;BME280;11783;50.350;6.576;2023-03-22T16:11:12;95453.28;;;10.99;79.86
23229;BME280;11783;50.350;6.576;2023-03-22T16:13:38;95446.09;;;10.95;79.26
23229;BME280;11783;50.350;6.576;2023-03-22T16:16:06;95437.59;;;10.98;80.77
23229;BME280;11783;50.350;6.576;2023-03-22T16:18:32;95439.19;;;10.99;80.52
23229;BME280;11783;50.350;6.576;2023-03-22T16:20:58;95446.34;;;10.93;81.59
23229;BME280;11783;50.350;6.576;2023-03-22T16:23:24;95447.44;;;11.02;80.66
23229;BME280;11783;50.350;6.576;2023-03-22T16:25:50;95451.44;;;11.05;80.43
23229;BME280;11783;50.350;6.576;2023-03-22T16:28:15;95461.53;;;11.03;80.47
23229;BME280;11783;50.350;6.576;2023-03-22T16:30:42;95441.28;;;10.97;79.68
23229;BME280;11783;50.350;6.576;2023-03-22T16:33:14;95442.09;;;10.92;80.37
23229;BME280;11783;50.350;6.576;2023-03-22T16:35:41;95445.03;;;10.96;81.78
23229;BME280;11783;50.350;6.576;2023-03-22T16:38:11;95439.47;;;10.97;80.79
23229;BME280;11783;50.350;6.576;2023-03-22T16:40:44;95442.66;;;10.99;79.41
23229;BME280;11783;50.350;6.576;2023-03-22T16:43:10;95450.59;;;10.89;81.71
23229;BME280;11783;50.350;6.576;2023-03-22T16:45:36;95449.00;;;10.93;81.34
23229;BME280;11783;50.350;6.576;2023-03-22T16:48:01;95457.25;;;10.86;81.23
23229;BME280;11783;50.350;6.576;2023-03-22T16:50:30;95463.09;;;10.88;81.99
23229;BME280;11783;50.350;6.576;2023-03-22T16:52:56;95466.28;;;10.85;80.69
23229;BME280;11783;50.350;6.576;2023-03-22T16:55:30;95458.84;;;10.87;81.61
23229;BME280;11783;50.350;6.576;2023-03-22T16:57:57;95474.25;;;10.80;81.62
23229;BME280;11783;50.350;6.576;2023-03-22T17:00:22;95449.25;;;10.71;82.12
23229;BME280;11783;50.350;6.576;2023-03-22T17:02:56;95462.81;;;10.80;82.25
23229;BME280;11783;50.350;6.576;2023-03-22T17:05:24;95458.84;;;10.87;81.79
23229;BME280;11783;50.350;6.576;2023-03-22T17:07:52;95458.84;;;10.87;80.86
23229;BME280;11783;50.350;6.576;2023-03-22T17:10:18;95460.44;;;10.83;81.14
23229;BME280;11783;50.350;6.576;2023-03-22T17:12:44;95452.97;;;10.75;82.69
23229;BME280;11783;50.350;6.576;2023-03-22T17:15:35;95452.97;;;10.70;83.14
23229;BME280;11783;50.350;6.576;2023-03-22T17:18:04;95444.47;;;10.78;82.64
23229;BME280;11783;50.350;6.576;2023-03-22T17:20:31;95441.78;;;10.68;82.09
23229;BME280;11783;50.350;6.576;2023-03-22T17:22:59;95447.66;;;10.75;82.49
23229;BME280;11783;50.350;6.576;2023-03-22T17:25:30;95453.75;;;10.71;81.93
23229;BME280;11783;50.350;6.576;2023-03-22T17:27:57;95454.03;;;10.74;82.97
23229;BME280;11783;50.350;6.576;2023-03-22T17:30:26;95457.75;;;10.68;83.54
23229;BME280;11783;50.350;6.576;2023-03-22T17:32:51;95454.28;;;10.73;83.72
23229;BME280;11783;50.350;6.576;2023-03-22T17:35:19;95458.81;;;10.72;83.95
23229;BME280;11783;50.350;6.576;2023-03-22T17:37:45;95452.72;;;10.82;82.71
23229;BME280;11783;50.350;6.576;2023-03-22T17:40:13;95450.56;;;10.74;83.51
23229;BME280;11783;50.350;6.576;2023-03-22T17:42:39;95452.47;;;10.83;83.08
23229;BME280;11783;50.350;6.576;2023-03-22T17:45:06;95459.38;;;10.79;83.21
23229;BME280;11783;50.350;6.576;2023-03-22T17:47:31;95456.41;;;10.76;83.25
23229;BME280;11783;50.350;6.576;2023-03-22T17:49:57;95451.31;;;10.54;84.15
23229;BME280;11783;50.350;6.576;2023-03-22T17:52:23;95459.06;;;10.66;84.89
23229;BME280;11783;50.350;6.576;2023-03-22T17:54:48;95443.38;;;10.64;84.76
23229;BME280;11783;50.350;6.576;2023-03-22T17:57:13;95463.53;;;10.55;85.50
23229;BME280;11783;50.350;6.576;2023-03-22T17:59:39;95458.22;;;10.55;86.09
23229;BME280;11783;50.350;6.576;2023-03-22T18:02:05;95441.47;;;10.54;85.68
23229;BME280;11783;50.350;6.576;2023-03-22T18:04:31;95451.31;;;10.54;86.24
23229;BME280;11783;50.350;6.576;2023-03-22T18:06:56;95448.66;;;10.54;86.01
23229;BME280;11783;50.350;6.576;2023-03-22T18:09:22;95449.19;;;10.56;86.30
23229;BME280;11783;50.350;6.576;2023-03-22T18:11:47;95448.66;;;10.54;86.63
23229;BME280;11783;50.350;6.576;2023-03-22T18:14:13;95438.56;;;10.51;87.01
23229;BME280;11783;50.350;6.576;2023-03-22T18:16:39;95450.00;;;10.56;86.00
23229;BME280;11783;50.350;6.576;2023-03-22T18:19:05;95447.06;;;10.53;86.35
23229;BME280;11783;50.350;6.576;2023-03-22T18:21:31;95444.41;;;10.58;85.89
23229;BME280;11783;50.350;6.576;2023-03-22T18:23:58;95444.97;;;10.65;86.19
23229;BME280;11783;50.350;6.576;2023-03-22T18:26:24;95441.75;;;10.58;86.96
23229;BME280;11783;50.350;6.576;2023-03-22T18:28:52;95438.59;;;10.66;86.15
23229;BME280;11783;50.350;6.576;2023-03-22T18:31:17;95443.63;;;10.57;86.11
23229;BME280;11783;50.350;6.576;2023-03-22T18:33:42;95440.19;;;10.62;86.33
23229;BME280;11783;50.350;6.576;2023-03-22T18:36:10;95445.22;;;10.58;87.41
23229;BME280;11783;50.350;6.576;2023-03-22T18:38:36;95441.75;;;10.58;87.55
23229;BME280;11783;50.350;6.576;2023-03-22T18:41:09;95444.41;;;10.53;86.61
23229;BME280;11783;50.350;6.576;2023-03-22T18:43:36;95436.16;;;10.54;86.92
23229;BME280;11783;50.350;6.576;2023-03-22T18:46:09;95440.94;;;10.52;87.14
23229;BME280;11783;50.350;6.576;2023-03-22T18:48:35;95436.69;;;10.51;86.37
23229;BME280;11783;50.350;6.576;2023-03-22T18:51:01;95449.13;;;10.41;87.70
23229;BME280;11783;50.350;6.576;2023-03-22T18:53:28;95444.91;;;10.45;88.17
23229;BME280;11783;50.350;6.576;2023-03-22T18:55:54;95442.25;;;10.45;87.80
23229;BME280;11783;50.350;6.576;2023-03-22T18:58:20;95449.19;;;10.46;87.80
23229;BME280;11783;50.350;6.576;2023-03-22T19:00:45;95439.06;;;10.43;88.68
23229;BME280;11783;50.350;6.576;2023-03-22T19:03:11;95436.13;;;10.39;88.31
23229;BME280;11783;50.350;6.576;2023-03-22T19:05:37;95435.06;;;10.35;89.60
23229;BME280;11783;50.350;6.576;2023-03-22T19:08:03;95424.19;;;10.42;89.60
23229;BME280;11783;50.350;6.576;2023-03-22T19:10:28;95433.44;;;10.34;90.37
23229;BME280;11783;50.350;6.576;2023-03-22T19:12:54;95433.44;;;10.34;90.21
23229;BME280;11783;50.350;6.576;2023-03-22T19:15:20;95424.69;;;10.34;90.70
23229;BME280;11783;50.350;6.576;2023-03-22T19:17:45;95419.91;;;10.36;91.15
23229;BME280;11783;50.350;6.576;2023-03-22T19:20:10;95419.91;;;10.30;91.36
23229;BME280;11783;50.350;6.576;2023-03-22T19:22:36;95407.19;;;10.43;90.90
23229;BME280;11783;50.350;6.576;2023-03-22T19:25:02;95404.81;;;10.46;90.22
23229;BME280;11783;50.350;6.576;2023-03-22T19:27:27;95402.16;;;10.41;90.99
23229;BME280;11783;50.350;6.576;2023-03-22T19:29:53;95408.78;;;10.44;90.40
23229;BME280;11783;50.350;6.576;2023-03-22T19:32:19;95413.59;;;10.52;89.72
23229;BME280;11783;50.350;6.576;2023-03-22T19:34:44;95402.16;;;10.41;90.54
23229;BME280;11783;50.350;6.576;2023-03-22T19:37:10;95397.34;;;10.33;91.21
23229;BME280;11783;50.350;6.576;2023-03-22T19:39:35;95397.63;;;10.42;90.79
23229;BME280;11783;50.350;6.576;2023-03-22T19:42:01;95392.06;;;10.48;89.65
23229;BME280;11783;50.350;6.576;2023-03-22T19:44:26;95390.19;;;10.44;90.49
23229;BME280;11783;50.350;6.576;2023-03-22T19:46:52;95388.88;;;10.46;90.22
23229;BME280;11783;50.350;6.576;2023-03-22T19:49:21;95381.19;;;10.50;89.12
23229;BME280;11783;50.350;6.576;2023-03-22T19:51:48;95383.31;;;10.53;90.05
23229;BME280;11783;50.350;6.576;2023-03-22T19:54:14;95387.56;;;10.54;89.89
23229;BME280;11783;50.350;6.576;2023-03-22T19:56:40;95382.75;;;10.51;89.78
23229;BME280;11783;50.350;6.576;2023-03-22T19:59:07;95383.56;;;10.51;89.94
23229;BME280;11783;50.350;6.576;2023-03-22T20:01:34;95376.91;;;10.49;90.09
23229;BME280;11783;50.350;6.576;2023-03-22T20:04:00;95368.69;;;10.45;90.43
23229;BME280;11783;50.350;6.576;2023-03-22T20:06:26;95364.44;;;10.49;89.60
23229;BME280;11783;50.350;6.576;2023-03-22T20:08:56;95370.81;;;10.43;89.52
23229;BME280;11783;50.350;6.576;2023-03-22T20:11:22;95369.75;;;10.44;89.28
23229;BME280;11783;50.350;6.576;2023-03-22T20:13:48;95365.75;;;10.42;90.44
23229;BME280;11783;50.350;6.576;2023-03-22T20:16:14;95362.31;;;10.41;90.00
23229;BME280;11783;50.350;6.576;2023-03-22T20:18:40;95362.84;;;10.43;89.69
23229;BME280;11783;50.350;6.576;2023-03-22T20:21:05;95356.44;;;10.39;90.48
23229;BME280;11783;50.350;6.576;2023-03-22T20:23:31;95358.59;;;10.52;89.03
23229;BME280;11783;50.350;6.576;2023-03-22T20:25:59;95358.31;;;10.49;89.74
23229;BME280;11783;50.350;6.576;2023-03-22T20:28:26;95350.59;;;10.32;91.20
23229;BME280;11783;50.350;6.576;2023-03-22T20:30:52;95359.38;;;10.43;90.05
23229;BME280;11783;50.350;6.576;2023-03-22T20:33:18;95359.13;;;10.44;89.28
23229;BME280;11783;50.350;6.576;2023-03-22T20:35:44;95360.44;;;10.47;89.88
23229;BME280;11783;50.350;6.576;2023-03-22T20:38:11;95357.53;;;10.43;89.03
23229;BME280;11783;50.350;6.576;2023-03-22T20:40:36;95357.25;;;10.45;89.94
23229;BME280;11783;50.350;6.576;2023-03-22T20:43:02;95357.00;;;10.46;89.45
23229;BME280;11783;50.350;6.576;2023-03-22T20:45:27;95347.44;;;10.50;88.81
23229;BME280;11783;50.350;6.576;2023-03-22T20:47:53;95348.22;;;10.46;89.52
23229;BME280;11783;50.350;6.576;2023-03-22T20:50:18;95344.22;;;10.38;90.02
23229;BME280;11783;50.350;6.576;2023-03-22T20:52:43;95348.72;;;10.38;90.00
23229;BME280;11783;50.350;6.576;2023-03-22T20:55:09;95343.41;;;10.38;90.72
23229;BME280;11783;50.350;6.576;2023-03-22T20:57:34;95354.59;;;10.50;89.61
23229;BME280;11783;50.350;6.576;2023-03-22T21:00:00;95352.47;;;10.42;90.66
23229;BME280;11783;50.350;6.576;2023-03-22T21:02:26;95341.84;;;10.47;89.72
23229;BME280;11783;50.350;6.576;2023-03-22T21:04:52;95341.06;;;10.41;90.19
23229;BME280;11783;50.350;6.576;2023-03-22T21:07:18;95342.66;;;10.42;91.08
23229;BME280;11783;50.350;6.576;2023-03-22T21:09:43;95343.97;;;10.45;91.31
23229;BME280;11783;50.350;6.576;2023-03-22T21:12:09;95338.66;;;10.50;91.90
23229;BME280;11783;50.350;6.576;2023-03-22T21:14:35;95341.31;;;10.50;93.86
23229;BME280;11783;50.350;6.576;2023-03-22T21:17:00;95348.75;;;10.48;94.31
23229;BME280;11783;50.350;6.576;2023-03-22T21:19:25;95343.44;;;10.43;94.64
23229;BME280;11783;50.350;6.576;2023-03-22T21:21:51;95342.88;;;10.41;96.31
23229;BME280;11783;50.350;6.576;2023-03-22T21:24:17;95335.44;;;10.38;95.36
23229;BME280;11783;50.350;6.576;2023-03-22T21:26:42;95339.69;;;10.34;96.23
23229;BME280;11783;50.350;6.576;2023-03-22T21:29:08;95338.09;;;10.27;97.36
23229;BME280;11783;50.350;6.576;2023-03-22T21:31:33;95330.94;;;10.28;95.93
23229;BME280;11783;50.350;6.576;2023-03-22T21:33:59;95322.63;;;10.19;97.47
23229;BME280;11783;50.350;6.576;2023-03-22T21:36:25;95325.06;;;10.21;97.03
23229;BME280;11783;50.350;6.576;2023-03-22T21:38:50;95313.94;;;10.24;96.15
23229;BME280;11783;50.350;6.576;2023-03-22T21:41:23;95326.69;;;10.27;95.86
23229;BME280;11783;50.350;6.576;2023-03-22T21:43:49;95307.56;;;10.30;96.21
23229;BME280;11783;50.350;6.576;2023-03-22T21:46:20;95308.63;;;10.29;96.74
23229;BME280;11783;50.350;6.576;2023-03-22T21:48:47;95326.16;;;10.25;98.68
23229;BME280;11783;50.350;6.576;2023-03-22T21:51:13;95320.53;;;10.21;98.58
23229;BME280;11783;50.350;6.576;2023-03-22T21:53:40;95330.59;;;10.19;97.97
23229;BME280;11783;50.350;6.576;2023-03-22T21:56:07;95325.28;;;10.19;97.96
23229;BME280;11783;50.350;6.576;2023-03-22T21:58:33;95315.19;;;10.16;98.84
23229;BME280;11783;50.350;6.576;2023-03-22T22:00:59;95308.28;;;10.05;100.00
23229;BME280;11783;50.350;6.576;2023-03-22T22:03:26;95302.44;;;10.08;100.00
23229;BME280;11783;50.350;6.576;2023-03-22T22:05:54;95309.88;;;10.06;100.00
23229;BME280;11783;50.350;6.576;2023-03-22T22:08:20;95304.84;;;10.05;100.00
23229;BME280;11783;50.350;6.576;2023-03-22T22:10:58;95298.69;;;9.99;100.00
23229;BME280;11783;50.350;6.576;2023-03-22T22:13:24;95295.25;;;9.98;100.00
23229;BME280;11783;50.350;6.576;2023-03-22T22:15:55;95290.19;;;10.02;100.00
23229;BME280;11783;50.350;6.576;2023-03-22T22:18:22;95292.31;;;9.95;100.00
23229;BME280;11783;50.350;6.576;2023-03-22T22:20:55;95299.75;;;9.98;100.00
23229;BME280;11783;50.350;6.576;2023-03-22T22:23:25;95294.19;;;9.99;100.00
23229;BME280;11783;50.350;6.576;2023-03-22T22:25:51;95287.81;;;9.95;100.00
23229;BME280;11783;50.350;6.576;2023-03-22T22:28:17;95298.69;;;9.99;100.00
23229;BME280;11783;50.350;6.576;2023-03-22T22:30:42;95296.56;;;10.01;100.00
23229;BME280;11783;50.350;6.576;2023-03-22T22:33:07;95295.78;;;9.95;100.00
23229;BME280;11783;50.350;6.576;2023-03-22T22:35:33;95295.50;;;9.97;100.00
23229;BME280;11783;50.350;6.576;2023-03-22T22:37:58;95292.81;;;9.82;100.00
23229;BME280;11783;50.350;6.576;2023-03-22T22:40:23;95277.41;;;9.79;100.00
23229;BME280;11783;50.350;6.576;2023-03-22T22:42:49;95282.16;;;9.71;100.00
23229;BME280;11783;50.350;6.576;2023-03-22T22:45:14;95283.78;;;9.83;100.00
23229;BME280;11783;50.350;6.576;2023-03-22T22:47:40;95288.59;;;9.91;100.00
23229;BME280;11783;50.350;6.576;2023-03-22T22:50:06;95276.13;;;9.86;100.00
23229;BME280;11783;50.350;6.576;2023-03-22T22:52:36;95279.56;;;9.87;100.00
23229;BME280;11783;50.350;6.576;2023-03-22T22:55:09;95271.31;;;9.83;100.00
23229;BME280;11783;50.350;6.576;2023-03-22T22:57:36;95278.50;;;9.93;99.47
23229;BME280;11783;50.350;6.576;2023-03-22T23:00:09;95291.47;;;9.79;100.00
23229;BME280;11783;50.350;6.576;2023-03-22T23:02:37;95294.66;;;9.81;100.00
23229;BME280;11783;50.350;6.576;2023-03-22T23:05:04;95286.69;;;9.81;100.00
23229;BME280;11783;50.350;6.576;2023-03-22T23:07:30;95270.53;;;9.88;100.00
23229;BME280;11783;50.350;6.576;2023-03-22T23:09:57;95287.50;;;9.82;100.00
23229;BME280;11783;50.350;6.576;2023-03-22T23:12:22;95289.63;;;9.80;100.00
23229;BME280;11783;50.350;6.576;2023-03-22T23:14:47;95286.69;;;9.81;100.00
23229;BME280;11783;50.350;6.576;2023-03-22T23:17:16;95288.53;;;9.76;100.00
23229;BME280;11783;50.350;6.576;2023-03-22T23:19:44;95279.50;;;9.71;100.00
23229;BME280;11783;50.350;6.576;2023-03-22T23:22:22;95282.66;;;9.63;100.00
23229;BME280;11783;50.350;6.576;2023-03-22T23:24:57;95279.47;;;9.61;100.00
23229;BME280;11783;50.350;6.576;2023-03-22T23:27:23;95274.97;;;9.62;100.00
23229;BME280;11783;50.350;6.576;2023-03-22T23:29:49;95286.91;;;9.64;100.00
23229;BME280;11783;50.350;6.576;2023-03-22T23:32:15;95269.31;;;9.48;100.00
23229;BME280;11783;50.350;6.576;2023-03-22T23:34:41;95256.84;;;9.44;100.00
23229;BME280;11783;50.350;6.576;2023-03-22T23:37:06;95266.66;;;9.48;100.00
23229;BME280;11783;50.350;6.576;2023-03-22T23:39:35;95255.56;;;9.56;100.00
23229;BME280;11783;50.350;6.576;2023-03-22T23:42:00;95253.47;;;9.58;100.00
23229;BME280;11783;50.350;6.576;2023-03-22T23:44:25;95251.88;;;9.57;100.00
23229;BME280;11783;50.350;6.576;2023-03-22T23:46:51;95249.91;;;9.32;100.00
23229;BME280;11783;50.350;6.576;2023-03-22T23:49:16;95263.72;;;9.39;100.00
23229;BME280;11783;50.350;6.576;2023-03-22T23:51:42;95258.69;;;9.38;100.00
23229;BME280;11783;50.350;6.576;2023-03-22T23:54:07;95242.25;;;9.36;100.00
23229;BME280;11783;50.350;6.576;2023-03-22T23:56:33;95265.00;;;9.27;100.00
23229;BME280;11783;50.350;6.576;2023-03-22T23:59:00;95235.09;;;9.36;100.00
